Time;durP1;ratioP1;P1;durP2;ratioP2;P2;SDS_P1;SDS_P2;PMS_P1;PMS_P2;Temp;Humidity;BMP_temperature;BMP_pressure;BME280_temperature;BME280_humidity;BME280_pressure;Samples;Min_cycle;Max_cycle;Signal;HPM_P1;HPM_P2
2022/01/04 00:03:41;;;;;;;4.77;2.27;;;;;8.90;95390.00;;;;8427196;28;20277;-78
2022/01/04 00:07:45;;;;;;;10.93;2.50;;;;;8.80;95390.00;;;;8432172;28;20576;-76
2022/01/04 00:13:20;;;;;;;5.40;2.20;;;;;8.80;95395.00;;;;8426315;28;20253;-76
2022/01/04 00:16:21;;;;;;;3.03;1.75;;;;;8.80;95379.00;;;;8427508;28;20766;-76
2022/01/04 00:20:24;;;;;;;2.33;2.10;;;;;8.90;95370.00;;;;8440313;28;20628;-77
2022/01/04 00:24:28;;;;;;;4.55;1.85;;;;;8.90;95354.00;;;;8437885;28;20253;-78
2022/01/04 00:28:32;;;;;;;5.40;1.90;;;;;8.90;95352.00;;;;8420332;28;20675;-79
2022/01/04 00:32:35;;;;;;;4.27;2.20;;;;;8.90;95341.00;;;;8438460;28;20230;-76
2022/01/04 00:36:39;;;;;;;8.50;2.00;;;;;8.80;95340.00;;;;8424504;28;20258;-78
2022/01/04 00:40:42;;;;;;;7.57;2.00;;;;;8.80;95323.00;;;;8433434;28;20305;-77
2022/01/04 00:44:46;;;;;;;6.83;2.20;;;;;8.80;95315.00;;;;8426968;28;20691;-76
2022/01/04 00:53:10;;;;;;;5.60;2.03;;;;;8.70;95299.00;;;;8428341;28;20330;-78
2022/01/04 00:57:13;;;;;;;7.00;2.50;;;;;8.70;95289.00;;;;8433936;28;20223;-81
2022/01/04 01:01:18;;;;;;;10.87;2.17;;;;;8.70;95283.00;;;;8434116;28;20668;-77
2022/01/04 01:05:25;;;;;;;5.17;2.27;;;;;8.80;95283.00;;;;8427653;28;20246;-79
2022/01/04 01:09:34;;;;;;;4.90;2.27;;;;;8.80;95279.00;;;;8425530;28;20917;-77
2022/01/04 01:13:39;;;;;;;8.35;2.28;;;;;8.80;95274.00;;;;8436807;28;20597;-78
2022/01/04 01:17:44;;;;;;;8.40;2.20;;;;;8.80;95275.00;;;;8428578;28;20258;-79
2022/01/04 01:21:47;;;;;;;4.68;2.13;;;;;8.80;95262.00;;;;8430520;28;20273;-76
2022/01/04 01:25:54;;;;;;;8.88;2.30;;;;;8.80;95258.00;;;;8426241;28;20314;-78
2022/01/04 01:29:58;;;;;;;9.87;2.10;;;;;8.80;95251.00;;;;8418532;28;20931;-78
2022/01/04 01:34:02;;;;;;;8.77;2.30;;;;;8.80;95249.00;;;;8437314;28;20272;-80
2022/01/04 01:38:08;;;;;;;2.70;1.90;;;;;8.80;95232.00;;;;8426585;28;20270;-77
2022/01/04 01:42:11;;;;;;;3.30;2.73;;;;;8.80;95228.00;;;;8435750;28;20223;-79
2022/01/04 01:46:14;;;;;;;3.37;2.30;;;;;8.80;95219.00;;;;8418830;28;20246;-80
2022/01/04 01:50:21;;;;;;;8.82;2.50;;;;;8.80;95223.00;;;;8431184;28;20230;-82
2022/01/04 01:54:24;;;;;;;4.77;2.37;;;;;8.80;95194.00;;;;8425029;28;20243;-78
2022/01/04 01:58:27;;;;;;;3.50;2.05;;;;;8.80;95196.00;;;;8415106;28;20294;-80
2022/01/04 02:02:30;;;;;;;5.73;2.13;;;;;8.80;95185.00;;;;8425836;28;21018;-81
2022/01/04 02:06:36;;;;;;;6.97;2.30;;;;;8.80;95178.00;;;;8417111;28;20614;-79
2022/01/04 02:10:40;;;;;;;5.20;2.30;;;;;8.80;95174.00;;;;8409110;28;24657;-76
2022/01/04 02:14:50;;;;;;;4.53;2.07;;;;;8.80;95153.00;;;;8434353;28;20251;-77
2022/01/04 02:18:53;;;;;;;4.15;2.60;;;;;8.80;95150.00;;;;8422443;28;20312;-77
2022/01/04 02:22:58;;;;;;;5.00;2.20;;;;;8.80;95138.00;;;;8414216;28;20258;-75
2022/01/04 02:27:01;;;;;;;3.92;2.00;;;;;8.80;95129.00;;;;8411391;28;20261;-76
2022/01/04 02:31:04;;;;;;;4.87;2.10;;;;;8.80;95123.00;;;;8418241;28;20322;-79
2022/01/04 02:35:09;;;;;;;6.90;1.92;;;;;8.80;95113.00;;;;8415678;28;20229;-77
2022/01/04 02:39:13;;;;;;;4.47;2.40;;;;;8.80;95114.00;;;;8426325;28;20313;-76
2022/01/04 02:43:18;;;;;;;2.83;1.70;;;;;8.90;95107.00;;;;8423461;28;20250;-81
2022/01/04 02:47:22;;;;;;;10.55;2.03;;;;;8.90;95092.00;;;;8414608;28;20255;-76
2022/01/04 02:51:25;;;;;;;4.40;1.80;;;;;8.90;95086.00;;;;8417513;28;20333;-81
2022/01/04 02:55:30;;;;;;;4.47;2.07;;;;;8.90;95074.00;;;;8412857;28;20295;-80
2022/01/04 02:59:33;;;;;;;4.97;2.17;;;;;8.90;95078.00;;;;8438163;28;20680;-79
2022/01/04 03:03:38;;;;;;;3.70;1.87;;;;;8.90;95075.00;;;;8423204;22;20691;-80
2022/01/04 03:07:41;;;;;;;6.78;2.15;;;;;9.00;95074.00;;;;8400298;28;20215;-81
2022/01/04 03:11:45;;;;;;;4.07;2.10;;;;;9.00;95046.00;;;;8409027;28;20325;-75
2022/01/04 03:15:49;;;;;;;2.00;1.87;;;;;9.00;95034.00;;;;8401853;28;20226;-75
2022/01/04 03:19:52;;;;;;;2.07;1.80;;;;;9.00;95040.00;;;;8397666;28;20289;-76
2022/01/04 03:23:55;;;;;;;3.90;2.17;;;;;9.00;95031.00;;;;8408842;28;20350;-77
2022/01/04 03:27:59;;;;;;;2.72;1.90;;;;;9.00;95035.00;;;;8405761;28;20264;-76
2022/01/04 03:32:03;;;;;;;12.07;4.77;;;;;9.00;95016.00;;;;8405558;28;20284;-78
2022/01/04 03:36:07;;;;;;;6.33;2.17;;;;;9.10;94996.00;;;;8403488;28;20914;-77
2022/01/04 03:40:11;;;;;;;4.40;2.00;;;;;9.10;94996.00;;;;8407785;28;20588;-78
2022/01/04 03:44:19;;;;;;;3.30;1.97;;;;;9.10;94991.00;;;;8402327;28;20672;-80
2022/01/04 03:48:23;;;;;;;2.80;1.85;;;;;9.10;94988.00;;;;8400205;28;20228;-78
2022/01/04 03:52:26;;;;;;;4.53;2.07;;;;;9.10;94977.00;;;;8404280;28;20227;-77
2022/01/04 03:56:30;;;;;;;3.67;2.15;;;;;9.10;94966.00;;;;8404165;28;20277;-79
2022/01/04 04:00:34;;;;;;;5.25;2.17;;;;;9.10;94948.00;;;;8409548;28;20695;-78
2022/01/04 04:04:38;;;;;;;2.60;2.08;;;;;9.20;94948.00;;;;8405812;28;20231;-80
2022/01/04 04:08:41;;;;;;;5.47;3.00;;;;;9.20;94934.00;;;;8401822;28;20313;-82
2022/01/04 04:12:44;;;;;;;5.53;2.85;;;;;9.20;94929.00;;;;8394534;28;20418;-80
2022/01/04 04:16:49;;;;;;;5.93;3.33;;;;;9.20;94934.00;;;;8407917;28;20239;-81
2022/01/04 04:20:52;;;;;;;4.90;3.20;;;;;9.20;94922.00;;;;8406968;28;20252;-81
2022/01/04 04:24:55;;;;;;;7.30;2.80;;;;;9.30;94909.00;;;;8412287;28;20262;-77
2022/01/04 04:28:58;;;;;;;3.55;2.55;;;;;9.30;94906.00;;;;8399636;28;20695;-78
2022/01/04 04:33:03;;;;;;;6.03;2.88;;;;;9.30;94902.00;;;;8405033;28;20223;-84
2022/01/04 04:37:07;;;;;;;4.07;2.58;;;;;9.30;94902.00;;;;8399937;28;20248;-78
2022/01/04 04:41:10;;;;;;;4.77;3.30;;;;;9.30;94898.00;;;;8407304;28;20227;-80
2022/01/04 04:45:13;;;;;;;5.25;2.38;;;;;9.30;94885.00;;;;8400614;28;20256;-79
2022/01/04 04:49:18;;;;;;;5.33;2.17;;;;;9.30;94889.00;;;;8403402;28;20227;-81
2022/01/04 04:53:21;;;;;;;5.55;2.20;;;;;9.30;94878.00;;;;8415818;28;20257;-79
2022/01/04 04:57:24;;;;;;;3.40;2.10;;;;;9.30;94877.00;;;;8407697;28;20215;-81
2022/01/04 05:01:28;;;;;;;2.55;2.25;;;;;9.30;94871.00;;;;8412652;28;20254;-80
2022/01/04 05:05:32;;;;;;;3.53;2.00;;;;;9.30;94850.00;;;;8405997;28;20223;-77
2022/01/04 05:09:37;;;;;;;5.95;2.10;;;;;9.30;94848.00;;;;8398650;28;20248;-77
2022/01/04 05:13:40;;;;;;;5.47;2.35;;;;;9.30;94853.00;;;;8410136;28;20322;-83
2022/01/04 05:17:43;;;;;;;6.47;4.53;;;;;9.30;94832.00;;;;8402250;28;20628;-84
2022/01/04 05:21:48;;;;;;;3.85;2.33;;;;;9.30;94832.00;;;;8408051;28;20231;-81
2022/01/04 05:25:51;;;;;;;2.38;2.10;;;;;9.30;94819.00;;;;8401955;28;20247;-80
2022/01/04 05:29:54;;;;;;;3.22;1.98;;;;;9.30;94825.00;;;;8401736;28;20704;-80
2022/01/04 05:33:57;;;;;;;2.65;1.98;;;;;9.30;94817.00;;;;8402589;28;20322;-82
2022/01/04 05:38:02;;;;;;;3.58;1.90;;;;;9.30;94812.00;;;;8398204;27;20229;-80
2022/01/04 05:42:08;;;;;;;2.70;2.00;;;;;9.30;94800.00;;;;8407308;28;20230;-81
2022/01/04 05:46:11;;;;;;;2.83;1.77;;;;;9.30;94799.00;;;;8414382;28;20292;-83
2022/01/04 05:50:15;;;;;;;5.28;2.63;;;;;9.30;94791.00;;;;8403758;28;20323;-82
2022/01/04 05:54:19;;;;;;;5.15;2.10;;;;;9.30;94784.00;;;;8406261;28;20266;-81
2022/01/04 05:58:23;;;;;;;4.00;1.98;;;;;9.30;94780.00;;;;8404029;28;20287;-81
2022/01/04 06:02:26;;;;;;;4.53;1.70;;;;;9.30;94773.00;;;;8393992;28;20259;-79
2022/01/04 06:06:29;;;;;;;3.13;2.13;;;;;9.30;94778.00;;;;8408176;28;20253;-83
2022/01/04 06:10:39;;;;;;;2.63;2.10;;;;;9.30;94772.00;;;;8407171;28;21004;-81
2022/01/04 06:14:51;;;;;;;3.87;2.00;;;;;9.20;94757.00;;;;8401731;28;20262;-77
2022/01/04 06:18:54;;;;;;;4.68;2.05;;;;;9.20;94757.00;;;;8401379;28;20246;-79
2022/01/04 06:22:57;;;;;;;4.13;1.95;;;;;9.10;94766.00;;;;8404136;28;20322;-80
2022/01/04 06:27:02;;;;;;;5.20;2.13;;;;;9.10;94743.00;;;;8405209;28;20231;-79
2022/01/04 06:31:05;;;;;;;2.92;2.05;;;;;9.10;94741.00;;;;8402892;28;20326;-78
2022/01/04 06:35:09;;;;;;;2.40;1.97;;;;;9.10;94735.00;;;;8397351;28;20345;-78
2022/01/04 06:39:12;;;;;;;2.80;2.10;;;;;9.10;94735.00;;;;8411310;28;20265;-78
2022/01/04 06:43:17;;;;;;;4.65;2.42;;;;;9.10;94733.00;;;;8400059;28;20305;-80
2022/01/04 06:47:20;;;;;;;6.43;2.38;;;;;9.10;94729.00;;;;8400598;28;20242;-81
2022/01/04 06:51:23;;;;;;;3.97;2.13;;;;;9.10;94723.00;;;;8396198;28;20265;-81
2022/01/04 06:55:27;;;;;;;5.40;2.47;;;;;9.10;94716.00;;;;8399506;28;20223;-81
2022/01/04 06:59:31;;;;;;;4.25;2.10;;;;;9.10;94715.00;;;;8396335;28;20258;-81
2022/01/04 07:03:35;;;;;;;2.95;2.50;;;;;9.00;94708.00;;;;8402941;28;20227;-81
2022/01/04 07:07:38;;;;;;;5.77;2.63;;;;;9.10;94707.00;;;;8401605;28;20307;-84
2022/01/04 07:11:41;;;;;;;9.23;3.90;;;;;9.00;94701.00;;;;8406647;28;20227;-84
2022/01/04 07:15:47;;;;;;;7.73;2.30;;;;;9.00;94694.00;;;;8391845;28;20270;-81
2022/01/04 07:19:50;;;;;;;4.33;2.40;;;;;9.00;94693.00;;;;8400203;28;20233;-84
2022/01/04 07:23:55;;;;;;;2.90;2.40;;;;;9.00;94679.00;;;;8403182;28;20342;-83
2022/01/04 07:27:58;;;;;;;5.33;2.80;;;;;9.00;94667.00;;;;8402664;28;20756;-83
2022/01/04 07:32:03;;;;;;;7.78;2.20;;;;;9.00;94667.00;;;;8403425;28;20263;-83
2022/01/04 07:36:07;;;;;;;4.65;2.13;;;;;9.00;94664.00;;;;8394868;28;20258;-83
2022/01/04 07:40:11;;;;;;;88.50;68.47;;;;;9.10;94654.00;;;;8411999;28;20341;-84
2022/01/04 07:44:15;;;;;;;11.13;6.67;;;;;9.20;94648.00;;;;8409125;28;20261;-84
2022/01/04 15:25:45;;;;;;;1.67;1.58;;;;;10.60;94204.00;;;;8344842;28;20315;-74
2022/01/04 15:29:48;;;;;;;1.52;1.48;;;;;11.60;94198.00;;;;8341366;28;20646;-73
2022/01/04 15:33:51;;;;;;;2.67;2.05;;;;;12.20;94213.00;;;;8337502;28;20314;-74
2022/01/04 15:37:55;;;;;;;2.20;2.00;;;;;12.40;94214.00;;;;8326979;28;20244;-73
2022/01/04 15:42:01;;;;;;;2.05;1.65;;;;;12.60;94224.00;;;;8321505;28;20307;-77
2022/01/04 15:46:05;;;;;;;1.58;1.52;;;;;12.50;94264.00;;;;8322703;28;20352;-73
2022/01/04 15:50:10;;;;;;;0.90;0.90;;;;;11.90;94302.00;;;;8311693;28;20584;-77
2022/01/04 15:54:13;;;;;;;0.45;0.45;;;;;11.20;94306.00;;;;8320291;28;20235;-76
2022/01/04 15:58:19;;;;;;;0.70;0.70;;;;;10.90;94326.00;;;;8320918;28;20233;-75
2022/01/04 16:02:22;;;;;;;0.50;0.50;;;;;10.60;94340.00;;;;8323699;28;20268;-77
2022/01/04 16:06:25;;;;;;;0.50;0.50;;;;;10.40;94340.00;;;;8321175;28;20224;-71
2022/01/04 16:10:29;;;;;;;1.42;0.85;;;;;10.20;94325.00;;;;8320395;28;20256;-75
2022/01/04 16:14:34;;;;;;;0.80;0.80;;;;;10.00;94336.00;;;;8321506;28;20225;-79
2022/01/04 16:21:33;;;;;;;1.73;0.70;;;;;9.90;94346.00;;;;8323426;28;20726;-76
2022/01/04 16:23:06;;;;;;;0.82;0.82;;;;;9.90;94348.00;;;;8326936;28;21088;-77
2022/01/04 16:27:09;;;;;;;0.60;0.60;;;;;9.80;94356.00;;;;8325213;28;22730;-77
2022/01/04 16:31:14;;;;;;;0.90;0.90;;;;;9.70;94360.00;;;;8338005;28;20330;-74
2022/01/04 16:35:18;;;;;;;0.85;0.85;;;;;9.70;94372.00;;;;8326932;28;20252;-82
2022/01/04 16:39:23;;;;;;;1.38;1.27;;;;;9.60;94382.00;;;;8318776;28;20356;-78
2022/01/04 16:43:26;;;;;;;1.50;1.40;;;;;9.60;94378.00;;;;8316458;28;20932;-73
2022/01/04 16:47:33;;;;;;;1.48;1.17;;;;;9.60;94376.00;;;;8311278;28;20306;-72
2022/01/04 16:51:37;;;;;;;2.50;1.30;;;;;9.60;94368.00;;;;8309810;28;20240;-74
2022/01/04 16:55:40;;;;;;;1.10;1.10;;;;;9.60;94389.00;;;;8311527;28;20228;-74
2022/01/04 17:00:06;;;;;;;1.85;1.63;;;;;9.50;94407.00;;;;8315655;28;20239;-76
2022/01/04 17:04:11;;;;;;;7.10;5.07;;;;;9.40;94392.00;;;;8304344;28;20590;-73
2022/01/04 17:08:14;;;;;;;4.63;3.63;;;;;9.30;94395.00;;;;8295117;28;20228;-72
2022/01/04 17:12:49;;;;;;;12.48;7.30;;;;;9.30;94405.00;;;;8319396;28;21821;-79
2022/01/04 17:16:53;;;;;;;2.10;1.90;;;;;9.20;94415.00;;;;8303311;28;20229;-73
2022/01/04 17:20:59;;;;;;;3.63;1.50;;;;;9.20;94438.00;;;;8306543;28;20336;-75
2022/01/04 17:25:04;;;;;;;4.47;3.85;;;;;9.10;94442.00;;;;8317152;28;20267;-74
2022/01/04 17:29:08;;;;;;;8.18;2.13;;;;;9.00;94429.00;;;;8318237;28;20247;-75
2022/01/04 17:33:11;;;;;;;2.20;2.00;;;;;9.00;94436.00;;;;8307799;28;20327;-76
2022/01/04 17:37:16;;;;;;;2.03;1.70;;;;;8.80;94443.00;;;;8315105;28;20686;-75
2022/01/04 17:41:39;;;;;;;65.38;33.63;;;;;8.60;94462.00;;;;8305574;28;20217;-72
2022/01/04 17:45:44;;;;;;;3.60;2.88;;;;;8.50;94478.00;;;;8308174;28;21030;-73
2022/01/04 17:49:48;;;;;;;1.10;1.10;;;;;8.40;94481.00;;;;8310110;28;20233;-74
2022/01/04 17:53:53;;;;;;;0.90;0.90;;;;;8.10;94493.00;;;;8283058;28;20265;-78
2022/01/04 17:58:02;;;;;;;0.67;0.67;;;;;7.90;94484.00;;;;8281118;28;20236;-76
2022/01/04 18:02:08;;;;;;;0.83;0.83;;;;;7.70;94507.00;;;;8295225;28;20861;-74
2022/01/04 18:06:12;;;;;;;1.10;0.77;;;;;7.50;94502.00;;;;8299904;28;20258;-75
2022/01/04 18:10:17;;;;;;;0.70;0.70;;;;;7.40;94501.00;;;;8302102;28;20960;-75
2022/01/04 18:14:27;;;;;;;6.03;5.63;;;;;7.30;94496.00;;;;8317009;28;20308;-77
2022/01/04 18:18:33;;;;;;;0.90;0.90;;;;;7.20;94491.00;;;;8308094;28;20241;-79
2022/01/04 18:22:36;;;;;;;1.23;0.83;;;;;7.10;94484.00;;;;8309737;28;20777;-77
2022/01/04 18:26:42;;;;;;;0.83;0.83;;;;;7.00;94503.00;;;;8275101;28;20884;-75
2022/01/04 18:30:46;;;;;;;0.90;0.90;;;;;7.00;94515.00;;;;8317397;28;20260;-77
2022/01/04 18:34:50;;;;;;;0.63;0.63;;;;;6.90;94526.00;;;;8319421;28;20308;-74
2022/01/04 18:38:54;;;;;;;1.67;0.80;;;;;6.90;94541.00;;;;8316895;28;20221;-81
2022/01/04 18:42:59;;;;;;;1.73;0.80;;;;;6.90;94537.00;;;;8332337;28;20271;-76
2022/01/04 18:47:03;;;;;;;1.13;1.03;;;;;6.80;94550.00;;;;8315777;28;20812;-81
2022/01/04 18:51:07;;;;;;;1.20;1.20;;;;;6.70;94557.00;;;;8312303;28;20928;-74
2022/01/04 18:55:11;;;;;;;0.70;0.70;;;;;6.70;94564.00;;;;8311368;28;20308;-77
2022/01/04 18:59:16;;;;;;;1.00;1.00;;;;;6.60;94553.00;;;;8285098;28;20280;-78
2022/01/04 19:03:19;;;;;;;1.60;0.63;;;;;6.60;94560.00;;;;8290188;28;20641;-78
2022/01/04 19:07:22;;;;;;;0.60;0.60;;;;;6.60;94550.00;;;;8310711;28;20331;-77
2022/01/04 19:11:28;;;;;;;0.70;0.70;;;;;6.60;94547.00;;;;8311382;28;20260;-74
2022/01/04 19:15:33;;;;;;;0.70;0.70;;;;;6.60;94556.00;;;;8312256;28;20237;-79
2022/01/04 19:19:36;;;;;;;0.83;0.83;;;;;6.60;94568.00;;;;8312963;28;20664;-77
2022/01/04 19:23:40;;;;;;;0.90;0.90;;;;;6.60;94570.00;;;;8311951;28;20256;-79
2022/01/04 19:27:44;;;;;;;1.50;0.87;;;;;6.60;94591.00;;;;8310886;28;20324;-78
2022/01/04 19:31:52;;;;;;;0.77;0.77;;;;;6.70;94608.00;;;;8315746;28;20321;-79
2022/01/04 19:40:16;;;;;;;1.53;1.10;;;;;6.80;94612.00;;;;8287993;28;20957;-75
2022/01/04 19:44:20;;;;;;;1.10;1.10;;;;;6.80;94620.00;;;;8312921;28;20324;-78
2022/01/04 19:48:24;;;;;;;6.30;1.20;;;;;6.90;94613.00;;;;8324601;28;20316;-76
2022/01/04 19:52:28;;;;;;;1.60;1.13;;;;;6.90;94615.00;;;;8313911;28;20244;-76
2022/01/04 19:56:31;;;;;;;2.70;1.80;;;;;6.90;94628.00;;;;8312892;28;20252;-74
2022/01/04 20:00:34;;;;;;;2.97;1.80;;;;;6.90;94627.00;;;;8307837;28;20260;-78
2022/01/04 20:04:39;;;;;;;1.50;1.40;;;;;6.90;94624.00;;;;8311214;28;20308;-78
2022/01/04 20:08:42;;;;;;;1.50;1.40;;;;;6.80;94628.00;;;;8323094;28;21152;-78
2022/01/04 20:12:53;;;;;;;2.50;1.63;;;;;6.80;94648.00;;;;8319311;28;20316;-76
2022/01/04 20:16:57;;;;;;;3.03;1.70;;;;;6.70;94657.00;;;;8316552;28;20307;-75
2022/01/04 20:21:02;;;;;;;2.10;1.90;;;;;6.70;94649.00;;;;8321578;28;20265;-75
2022/01/04 20:25:06;;;;;;;1.77;1.67;;;;;6.70;94669.00;;;;8319966;28;20316;-76
2022/01/04 20:29:10;;;;;;;1.90;1.70;;;;;6.80;94678.00;;;;8320643;28;20793;-74
2022/01/04 20:33:13;;;;;;;1.60;1.50;;;;;6.80;94668.00;;;;8294938;28;20333;-78
2022/01/04 20:37:18;;;;;;;1.80;1.60;;;;;6.80;94668.00;;;;8294121;28;20237;-86
2022/01/04 20:41:22;;;;;;;2.23;1.80;;;;;6.80;94666.00;;;;8295356;28;20232;-81
2022/01/04 20:45:25;;;;;;;3.17;1.40;;;;;6.70;94658.00;;;;8289362;28;20240;-82
2022/01/04 20:49:29;;;;;;;1.47;1.37;;;;;6.40;94669.00;;;;8316899;28;20225;-82
2022/01/04 20:53:34;;;;;;;1.20;1.20;;;;;6.20;94669.00;;;;8295011;28;20579;-81
2022/01/04 20:57:38;;;;;;;1.07;1.00;;;;;6.20;94673.00;;;;8302608;28;20328;-82
2022/01/04 21:01:41;;;;;;;1.00;1.00;;;;;6.10;94684.00;;;;8293372;28;20320;-81
2022/01/04 21:05:45;;;;;;;0.47;0.40;;;;;6.00;94682.00;;;;8297161;28;20317;-80
2022/01/04 21:09:50;;;;;;;0.60;0.60;;;;;5.90;94678.00;;;;8300221;28;20257;-84
2022/01/04 21:13:54;;;;;;;1.10;0.70;;;;;5.70;94682.00;;;;8282683;28;20226;-82
2022/01/04 21:17:59;;;;;;;0.60;0.60;;;;;5.70;94691.00;;;;8300169;28;20329;-82
2022/01/04 21:22:06;;;;;;;1.03;0.70;;;;;5.50;94685.00;;;;8315422;28;20228;-82
2022/01/04 21:26:11;;;;;;;0.50;0.50;;;;;5.50;94690.00;;;;8317918;28;20775;-81
2022/01/04 21:30:15;;;;;;;0.83;0.60;;;;;5.50;94690.00;;;;8317129;28;20240;-81
2022/01/04 21:34:18;;;;;;;0.70;0.70;;;;;5.50;94689.00;;;;8318209;28;20232;-81
2022/01/04 21:38:22;;;;;;;0.90;0.90;;;;;5.50;94679.00;;;;8316580;28;20312;-87
2022/01/04 21:42:27;;;;;;;0.80;0.80;;;;;5.50;94678.00;;;;8317963;28;20275;-83
2022/01/04 21:46:30;;;;;;;0.73;0.73;;;;;5.60;94678.00;;;;8315732;28;20225;-81
2022/01/04 21:50:35;;;;;;;1.07;0.93;;;;;5.50;94688.00;;;;8318334;28;20713;-82
2022/01/04 21:54:38;;;;;;;0.73;0.73;;;;;5.60;94702.00;;;;8318718;28;20229;-85
2022/01/04 21:58:43;;;;;;;0.80;0.80;;;;;5.60;94688.00;;;;8317271;28;20248;-87
2022/01/04 22:02:47;;;;;;;0.73;0.73;;;;;5.50;94677.00;;;;8308747;28;20268;-84
2022/01/04 22:06:51;;;;;;;0.70;0.70;;;;;5.50;94684.00;;;;8286272;28;20268;-83
2022/01/04 22:10:54;;;;;;;0.77;0.70;;;;;5.50;94701.00;;;;8284384;28;20261;-81
2022/01/04 22:14:59;;;;;;;0.70;0.60;;;;;5.50;94708.00;;;;8315750;28;20680;-86
2022/01/04 22:19:02;;;;;;;1.03;0.87;;;;;5.50;94702.00;;;;8317526;28;20267;-85
2022/01/04 22:23:15;;;;;;;0.70;0.70;;;;;5.50;94704.00;;;;8312562;28;20225;-86
2022/01/04 22:27:19;;;;;;;0.60;0.60;;;;;5.40;94694.00;;;;8316632;28;20657;-83
2022/01/04 22:31:24;;;;;;;0.57;0.57;;;;;5.40;94716.00;;;;8310442;28;20237;-82
2022/01/04 22:35:27;;;;;;;0.50;0.50;;;;;5.40;94707.00;;;;8304398;28;20272;-81
2022/01/04 22:39:33;;;;;;;0.93;0.80;;;;;5.40;94708.00;;;;8316410;28;20225;-83
2022/01/04 22:43:36;;;;;;;1.23;1.00;;;;;5.30;94711.00;;;;8317198;28;20229;-81
2022/01/04 22:47:43;;;;;;;0.90;0.90;;;;;5.30;94701.00;;;;8317342;28;20312;-80
2022/01/04 22:51:46;;;;;;;2.23;1.13;;;;;5.40;94709.00;;;;8315374;28;20754;-82
2022/01/04 22:55:49;;;;;;;1.10;1.10;;;;;5.30;94707.00;;;;8317567;28;20248;-84
2022/01/04 22:59:52;;;;;;;0.97;0.97;;;;;5.40;94713.00;;;;8316818;28;20618;-85
2022/01/04 23:03:57;;;;;;;1.30;1.20;;;;;5.40;94723.00;;;;8306207;28;20229;-82
2022/01/04 23:08:00;;;;;;;1.20;1.10;;;;;5.30;94688.00;;;;8313349;28;20237;-84
2022/01/04 23:12:03;;;;;;;1.40;1.27;;;;;5.30;94699.00;;;;8313930;28;20260;-84
2022/01/04 23:16:07;;;;;;;1.37;1.27;;;;;5.30;94692.00;;;;8316210;28;20307;-81
2022/01/04 23:20:13;;;;;;;1.60;1.50;;;;;5.30;94708.00;;;;8324259;28;20229;-84
2022/01/04 23:24:16;;;;;;;1.27;1.10;;;;;5.30;94724.00;;;;8315183;28;20249;-82
2022/01/04 23:28:19;;;;;;;1.40;1.30;;;;;5.20;94719.00;;;;8313614;28;20323;-84
2022/01/04 23:32:22;;;;;;;1.20;1.10;;;;;5.30;94715.00;;;;8312906;28;20256;-83
2022/01/04 23:36:28;;;;;;;2.50;1.20;;;;;5.20;94702.00;;;;8314888;28;20444;-81
2022/01/04 23:40:31;;;;;;;1.50;1.40;;;;;5.20;94675.00;;;;8314906;28;20642;-85
2022/01/04 23:44:35;;;;;;;1.10;1.00;;;;;5.20;94678.00;;;;8316210;28;20288;-83
2022/01/04 23:48:38;;;;;;;1.10;1.00;;;;;5.10;94691.00;;;;8324705;28;20253;-87
2022/01/04 23:52:43;;;;;;;1.40;1.30;;;;;5.10;94684.00;;;;8325718;28;20240;-89
2022/01/04 23:56:47;;;;;;;1.30;1.20;;;;;5.00;94665.00;;;;8322608;28;20261;-85
